TAF PABT
PABT 270520Z 2706/2806 32003KT P6SM VCSH OVC060 FM271200 35003KT P6SM -SN OVC040=
METAR PABT
WC PABT
WS PABT
WV PABT